sensor_id;sensor_type;location;lat;lon;timestamp;P1;durP1;ratioP1;P2;durP2;ratioP2
68432;SDS011;55412;51.350;17.056;2023-12-04T00:01:44;14.17;;;4.17;;
68432;SDS011;55412;51.350;17.056;2023-12-04T00:04:10;11.50;;;3.42;;
68432;SDS011;55412;51.350;17.056;2023-12-04T00:06:36;12.27;;;3.63;;
68432;SDS011;55412;51.350;17.056;2023-12-04T00:09:02;15.37;;;3.67;;
68432;SDS011;55412;51.350;17.056;2023-12-04T00:11:28;14.27;;;5.10;;
68432;SDS011;55412;51.350;17.056;2023-12-04T00:13:53;17.10;;;5.03;;
68432;SDS011;55412;51.350;17.056;2023-12-04T00:16:19;11.55;;;3.63;;
68432;SDS011;55412;51.350;17.056;2023-12-04T00:18:45;14.20;;;4.60;;
68432;SDS011;55412;51.350;17.056;2023-12-04T00:21:12;10.65;;;3.28;;
68432;SDS011;55412;51.350;17.056;2023-12-04T00:23:38;15.25;;;4.88;;
68432;SDS011;55412;51.350;17.056;2023-12-04T00:26:04;13.67;;;4.07;;
68432;SDS011;55412;51.350;17.056;2023-12-04T00:28:30;18.23;;;5.05;;
68432;SDS011;55412;51.350;17.056;2023-12-04T00:30:55;16.63;;;4.37;;
68432;SDS011;55412;51.350;17.056;2023-12-04T00:33:21;14.57;;;3.67;;
68432;SDS011;55412;51.350;17.056;2023-12-04T00:35:47;15.23;;;4.00;;
68432;SDS011;55412;51.350;17.056;2023-12-04T00:38:12;13.15;;;4.63;;
68432;SDS011;55412;51.350;17.056;2023-12-04T00:40:38;15.47;;;5.07;;
68432;SDS011;55412;51.350;17.056;2023-12-04T00:43:04;23.27;;;6.45;;
68432;SDS011;55412;51.350;17.056;2023-12-04T00:45:30;17.50;;;4.30;;
68432;SDS011;55412;51.350;17.056;2023-12-04T00:47:55;13.63;;;4.32;;
68432;SDS011;55412;51.350;17.056;2023-12-04T00:50:21;13.57;;;4.90;;
68432;SDS011;55412;51.350;17.056;2023-12-04T00:52:47;16.60;;;4.70;;
68432;SDS011;55412;51.350;17.056;2023-12-04T00:55:13;13.50;;;3.78;;
68432;SDS011;55412;51.350;17.056;2023-12-04T00:57:39;14.47;;;4.50;;
68432;SDS011;55412;51.350;17.056;2023-12-04T01:00:04;13.85;;;3.83;;
68432;SDS011;55412;51.350;17.056;2023-12-04T01:02:31;13.75;;;5.00;;
68432;SDS011;55412;51.350;17.056;2023-12-04T01:04:57;15.13;;;4.30;;
68432;SDS011;55412;51.350;17.056;2023-12-04T01:07:23;16.67;;;5.10;;
68432;SDS011;55412;51.350;17.056;2023-12-04T01:09:48;21.27;;;5.85;;
68432;SDS011;55412;51.350;17.056;2023-12-04T01:12:14;7.73;;;3.20;;
68432;SDS011;55412;51.350;17.056;2023-12-04T01:14:40;20.88;;;6.20;;
68432;SDS011;55412;51.350;17.056;2023-12-04T01:17:05;19.90;;;6.00;;
68432;SDS011;55412;51.350;17.056;2023-12-04T01:19:31;11.30;;;3.72;;
68432;SDS011;55412;51.350;17.056;2023-12-04T01:21:57;20.83;;;5.63;;
68432;SDS011;55412;51.350;17.056;2023-12-04T01:24:23;14.30;;;4.77;;
68432;SDS011;55412;51.350;17.056;2023-12-04T01:26:48;14.10;;;4.10;;
68432;SDS011;55412;51.350;17.056;2023-12-04T01:29:14;18.40;;;6.17;;
68432;SDS011;55412;51.350;17.056;2023-12-04T01:31:40;17.10;;;5.47;;
68432;SDS011;55412;51.350;17.056;2023-12-04T01:34:05;15.90;;;4.27;;
68432;SDS011;55412;51.350;17.056;2023-12-04T01:36:31;18.13;;;6.47;;
68432;SDS011;55412;51.350;17.056;2023-12-04T01:38:57;25.63;;;7.45;;
68432;SDS011;55412;51.350;17.056;2023-12-04T01:41:22;18.83;;;6.80;;
68432;SDS011;55412;51.350;17.056;2023-12-04T01:43:48;16.67;;;6.55;;
68432;SDS011;55412;51.350;17.056;2023-12-04T01:46:15;20.37;;;5.53;;
68432;SDS011;55412;51.350;17.056;2023-12-04T01:48:43;20.88;;;6.13;;
68432;SDS011;55412;51.350;17.056;2023-12-04T01:51:10;19.33;;;6.25;;
68432;SDS011;55412;51.350;17.056;2023-12-04T01:53:38;26.52;;;8.38;;
68432;SDS011;55412;51.350;17.056;2023-12-04T01:56:05;19.97;;;6.17;;
68432;SDS011;55412;51.350;17.056;2023-12-04T01:58:32;22.63;;;6.00;;
68432;SDS011;55412;51.350;17.056;2023-12-04T02:00:58;22.27;;;5.82;;
68432;SDS011;55412;51.350;17.056;2023-12-04T02:03:24;20.95;;;6.90;;
68432;SDS011;55412;51.350;17.056;2023-12-04T02:05:51;17.90;;;6.27;;
68432;SDS011;55412;51.350;17.056;2023-12-04T02:08:18;18.42;;;6.65;;
68432;SDS011;55412;51.350;17.056;2023-12-04T02:10:44;25.42;;;7.50;;
68432;SDS011;55412;51.350;17.056;2023-12-04T02:13:10;19.10;;;6.53;;
68432;SDS011;55412;51.350;17.056;2023-12-04T02:15:36;24.13;;;7.30;;
68432;SDS011;55412;51.350;17.056;2023-12-04T02:18:02;20.13;;;7.07;;
68432;SDS011;55412;51.350;17.056;2023-12-04T02:20:35;22.98;;;6.60;;
68432;SDS011;55412;51.350;17.056;2023-12-04T02:23:04;15.90;;;5.57;;
68432;SDS011;55412;51.350;17.056;2023-12-04T02:25:30;24.27;;;8.02;;
68432;SDS011;55412;51.350;17.056;2023-12-04T02:27:57;21.90;;;8.25;;
68432;SDS011;55412;51.350;17.056;2023-12-04T02:30:26;23.23;;;8.80;;
68432;SDS011;55412;51.350;17.056;2023-12-04T02:32:57;19.67;;;5.85;;
68432;SDS011;55412;51.350;17.056;2023-12-04T02:35:26;22.08;;;9.38;;
68432;SDS011;55412;51.350;17.056;2023-12-04T02:37:55;21.23;;;8.23;;
68432;SDS011;55412;51.350;17.056;2023-12-04T02:40:23;22.70;;;7.57;;
68432;SDS011;55412;51.350;17.056;2023-12-04T02:42:49;25.73;;;7.90;;
68432;SDS011;55412;51.350;17.056;2023-12-04T02:45:15;25.63;;;7.43;;
68432;SDS011;55412;51.350;17.056;2023-12-04T02:47:41;31.13;;;9.10;;
68432;SDS011;55412;51.350;17.056;2023-12-04T02:50:07;27.77;;;9.38;;
68432;SDS011;55412;51.350;17.056;2023-12-04T02:52:33;35.97;;;12.03;;
68432;SDS011;55412;51.350;17.056;2023-12-04T02:54:58;29.08;;;9.02;;
68432;SDS011;55412;51.350;17.056;2023-12-04T02:57:24;28.13;;;9.53;;
68432;SDS011;55412;51.350;17.056;2023-12-04T02:59:50;26.50;;;8.32;;
68432;SDS011;55412;51.350;17.056;2023-12-04T03:02:16;33.05;;;9.07;;
68432;SDS011;55412;51.350;17.056;2023-12-04T03:04:41;26.98;;;8.68;;
68432;SDS011;55412;51.350;17.056;2023-12-04T03:07:07;27.63;;;8.97;;
68432;SDS011;55412;51.350;17.056;2023-12-04T03:09:33;20.73;;;7.45;;
68432;SDS011;55412;51.350;17.056;2023-12-04T03:11:58;20.80;;;7.90;;
68432;SDS011;55412;51.350;17.056;2023-12-04T03:14:24;25.52;;;9.32;;
68432;SDS011;55412;51.350;17.056;2023-12-04T03:16:50;23.63;;;7.40;;
68432;SDS011;55412;51.350;17.056;2023-12-04T03:19:16;20.13;;;7.27;;
68432;SDS011;55412;51.350;17.056;2023-12-04T03:21:41;26.10;;;8.65;;
68432;SDS011;55412;51.350;17.056;2023-12-04T03:24:07;27.40;;;8.98;;
68432;SDS011;55412;51.350;17.056;2023-12-04T03:26:33;30.33;;;10.10;;
68432;SDS011;55412;51.350;17.056;2023-12-04T03:28:58;21.13;;;7.30;;
68432;SDS011;55412;51.350;17.056;2023-12-04T03:31:24;25.27;;;8.40;;
68432;SDS011;55412;51.350;17.056;2023-12-04T03:33:50;25.67;;;7.57;;
68432;SDS011;55412;51.350;17.056;2023-12-04T03:36:16;24.05;;;7.75;;
68432;SDS011;55412;51.350;17.056;2023-12-04T03:38:41;27.03;;;8.73;;
68432;SDS011;55412;51.350;17.056;2023-12-04T03:41:14;22.40;;;7.95;;
68432;SDS011;55412;51.350;17.056;2023-12-04T03:43:40;24.70;;;7.60;;
68432;SDS011;55412;51.350;17.056;2023-12-04T03:46:06;19.63;;;5.53;;
68432;SDS011;55412;51.350;17.056;2023-12-04T03:48:32;15.63;;;6.25;;
68432;SDS011;55412;51.350;17.056;2023-12-04T03:50:57;29.83;;;7.30;;
68432;SDS011;55412;51.350;17.056;2023-12-04T03:53:24;17.45;;;6.72;;
68432;SDS011;55412;51.350;17.056;2023-12-04T03:55:50;21.97;;;8.00;;
68432;SDS011;55412;51.350;17.056;2023-12-04T03:58:16;20.60;;;6.93;;
68432;SDS011;55412;51.350;17.056;2023-12-04T04:00:41;16.57;;;5.17;;
68432;SDS011;55412;51.350;17.056;2023-12-04T04:03:08;22.95;;;7.45;;
68432;SDS011;55412;51.350;17.056;2023-12-04T04:05:34;20.38;;;6.10;;
68432;SDS011;55412;51.350;17.056;2023-12-04T04:08:01;19.48;;;6.03;;
68432;SDS011;55412;51.350;17.056;2023-12-04T04:10:27;13.60;;;4.87;;
68432;SDS011;55412;51.350;17.056;2023-12-04T04:12:52;15.93;;;5.00;;
68432;SDS011;55412;51.350;17.056;2023-12-04T04:15:18;14.60;;;5.37;;
68432;SDS011;55412;51.350;17.056;2023-12-04T04:17:44;14.45;;;4.68;;
68432;SDS011;55412;51.350;17.056;2023-12-04T04:20:09;15.80;;;5.63;;
68432;SDS011;55412;51.350;17.056;2023-12-04T04:22:37;22.27;;;7.05;;
68432;SDS011;55412;51.350;17.056;2023-12-04T04:25:05;16.75;;;5.90;;
68432;SDS011;55412;51.350;17.056;2023-12-04T04:27:31;18.08;;;6.00;;
68432;SDS011;55412;51.350;17.056;2023-12-04T04:29:57;18.47;;;5.37;;
68432;SDS011;55412;51.350;17.056;2023-12-04T04:32:23;17.25;;;5.70;;
68432;SDS011;55412;51.350;17.056;2023-12-04T04:34:49;18.83;;;5.73;;
68432;SDS011;55412;51.350;17.056;2023-12-04T04:37:15;18.58;;;6.32;;
68432;SDS011;55412;51.350;17.056;2023-12-04T04:39:40;16.10;;;6.30;;
68432;SDS011;55412;51.350;17.056;2023-12-04T04:42:06;20.02;;;5.72;;
68432;SDS011;55412;51.350;17.056;2023-12-04T04:44:32;17.07;;;6.07;;
68432;SDS011;55412;51.350;17.056;2023-12-04T04:46:57;21.80;;;7.15;;
68432;SDS011;55412;51.350;17.056;2023-12-04T04:49:23;24.13;;;7.10;;
68432;SDS011;55412;51.350;17.056;2023-12-04T04:51:49;19.92;;;7.03;;
68432;SDS011;55412;51.350;17.056;2023-12-04T04:54:14;20.67;;;8.10;;
68432;SDS011;55412;51.350;17.056;2023-12-04T04:56:40;27.42;;;8.50;;
68432;SDS011;55412;51.350;17.056;2023-12-04T04:59:06;29.00;;;9.33;;
68432;SDS011;55412;51.350;17.056;2023-12-04T05:01:31;28.23;;;9.02;;
68432;SDS011;55412;51.350;17.056;2023-12-04T05:03:57;29.50;;;10.10;;
68432;SDS011;55412;51.350;17.056;2023-12-04T05:06:23;22.45;;;8.52;;
68432;SDS011;55412;51.350;17.056;2023-12-04T05:08:49;23.42;;;7.82;;
68432;SDS011;55412;51.350;17.056;2023-12-04T05:11:18;26.63;;;8.75;;
68432;SDS011;55412;51.350;17.056;2023-12-04T05:13:47;31.85;;;10.57;;
68432;SDS011;55412;51.350;17.056;2023-12-04T05:16:13;27.70;;;10.68;;
68432;SDS011;55412;51.350;17.056;2023-12-04T05:18:38;26.90;;;8.55;;
68432;SDS011;55412;51.350;17.056;2023-12-04T05:21:08;27.63;;;8.45;;
68432;SDS011;55412;51.350;17.056;2023-12-04T05:23:35;28.83;;;8.88;;
68432;SDS011;55412;51.350;17.056;2023-12-04T05:26:01;27.42;;;9.85;;
68432;SDS011;55412;51.350;17.056;2023-12-04T05:28:27;22.83;;;8.40;;
68432;SDS011;55412;51.350;17.056;2023-12-04T05:30:52;27.30;;;9.43;;
68432;SDS011;55412;51.350;17.056;2023-12-04T05:33:18;30.60;;;10.02;;
68432;SDS011;55412;51.350;17.056;2023-12-04T05:35:44;25.90;;;9.25;;
68432;SDS011;55412;51.350;17.056;2023-12-04T05:38:11;23.15;;;8.25;;
68432;SDS011;55412;51.350;17.056;2023-12-04T05:40:37;25.90;;;9.35;;
68432;SDS011;55412;51.350;17.056;2023-12-04T05:43:03;28.37;;;9.20;;
68432;SDS011;55412;51.350;17.056;2023-12-04T05:45:28;21.33;;;8.60;;
68432;SDS011;55412;51.350;17.056;2023-12-04T05:47:54;30.33;;;10.90;;
68432;SDS011;55412;51.350;17.056;2023-12-04T05:50:20;23.95;;;8.65;;
68432;SDS011;55412;51.350;17.056;2023-12-04T05:52:45;19.30;;;7.30;;
68432;SDS011;55412;51.350;17.056;2023-12-04T05:55:11;24.30;;;9.18;;
68432;SDS011;55412;51.350;17.056;2023-12-04T05:57:40;24.67;;;9.17;;
68432;SDS011;55412;51.350;17.056;2023-12-04T06:00:06;30.35;;;10.45;;
68432;SDS011;55412;51.350;17.056;2023-12-04T06:02:41;24.20;;;9.45;;
68432;SDS011;55412;51.350;17.056;2023-12-04T06:05:08;29.77;;;10.87;;
68432;SDS011;55412;51.350;17.056;2023-12-04T06:07:35;23.98;;;8.27;;
68432;SDS011;55412;51.350;17.056;2023-12-04T06:10:01;30.23;;;10.98;;
68432;SDS011;55412;51.350;17.056;2023-12-04T06:12:31;31.60;;;10.13;;
68432;SDS011;55412;51.350;17.056;2023-12-04T06:14:57;30.70;;;10.95;;
68432;SDS011;55412;51.350;17.056;2023-12-04T06:17:24;33.07;;;9.97;;
68432;SDS011;55412;51.350;17.056;2023-12-04T06:19:50;30.35;;;11.38;;
68432;SDS011;55412;51.350;17.056;2023-12-04T06:22:16;49.72;;;27.40;;
68432;SDS011;55412;51.350;17.056;2023-12-04T06:24:43;41.58;;;16.85;;
68432;SDS011;55412;51.350;17.056;2023-12-04T06:27:10;36.78;;;13.85;;
68432;SDS011;55412;51.350;17.056;2023-12-04T06:29:41;116.63;;;32.63;;
68432;SDS011;55412;51.350;17.056;2023-12-04T06:32:08;39.50;;;14.02;;
68432;SDS011;55412;51.350;17.056;2023-12-04T06:34:35;33.80;;;12.25;;
68432;SDS011;55412;51.350;17.056;2023-12-04T06:37:07;28.10;;;10.57;;
68432;SDS011;55412;51.350;17.056;2023-12-04T06:39:35;36.30;;;11.75;;
68432;SDS011;55412;51.350;17.056;2023-12-04T06:42:03;24.83;;;9.82;;
68432;SDS011;55412;51.350;17.056;2023-12-04T06:44:32;27.48;;;11.13;;
68432;SDS011;55412;51.350;17.056;2023-12-04T06:47:02;31.13;;;11.50;;
68432;SDS011;55412;51.350;17.056;2023-12-04T06:49:29;27.38;;;8.73;;
68432;SDS011;55412;51.350;17.056;2023-12-04T06:51:56;19.05;;;6.60;;
68432;SDS011;55412;51.350;17.056;2023-12-04T06:54:22;25.08;;;8.70;;
68432;SDS011;55412;51.350;17.056;2023-12-04T06:56:48;18.88;;;6.90;;
68432;SDS011;55412;51.350;17.056;2023-12-04T06:59:13;27.13;;;8.68;;
68432;SDS011;55412;51.350;17.056;2023-12-04T07:01:39;22.27;;;8.57;;
68432;SDS011;55412;51.350;17.056;2023-12-04T07:04:05;23.80;;;8.98;;
68432;SDS011;55412;51.350;17.056;2023-12-04T07:06:38;30.40;;;11.13;;
68432;SDS011;55412;51.350;17.056;2023-12-04T07:09:05;30.35;;;10.43;;
68432;SDS011;55412;51.350;17.056;2023-12-04T07:11:34;33.85;;;13.18;;
68432;SDS011;55412;51.350;17.056;2023-12-04T07:14:00;28.27;;;11.00;;
68432;SDS011;55412;51.350;17.056;2023-12-04T07:16:26;33.90;;;11.98;;
68432;SDS011;55412;51.350;17.056;2023-12-04T07:18:52;29.92;;;10.27;;
68432;SDS011;55412;51.350;17.056;2023-12-04T07:21:18;34.50;;;12.53;;
68432;SDS011;55412;51.350;17.056;2023-12-04T07:23:43;32.28;;;11.38;;
68432;SDS011;55412;51.350;17.056;2023-12-04T07:26:09;33.92;;;13.30;;
68432;SDS011;55412;51.350;17.056;2023-12-04T07:28:35;33.17;;;11.67;;
68432;SDS011;55412;51.350;17.056;2023-12-04T07:31:01;31.77;;;10.68;;
68432;SDS011;55412;51.350;17.056;2023-12-04T07:33:27;31.48;;;10.30;;
68432;SDS011;55412;51.350;17.056;2023-12-04T07:35:54;30.25;;;10.75;;
68432;SDS011;55412;51.350;17.056;2023-12-04T07:38:19;22.35;;;8.77;;
68432;SDS011;55412;51.350;17.056;2023-12-04T07:40:45;17.52;;;6.10;;
68432;SDS011;55412;51.350;17.056;2023-12-04T07:43:11;24.85;;;9.25;;
68432;SDS011;55412;51.350;17.056;2023-12-04T07:45:39;27.73;;;9.52;;
68432;SDS011;55412;51.350;17.056;2023-12-04T07:48:05;23.52;;;8.25;;
68432;SDS011;55412;51.350;17.056;2023-12-04T07:50:31;24.02;;;9.57;;
68432;SDS011;55412;51.350;17.056;2023-12-04T07:52:57;11.53;;;6.33;;
68432;SDS011;55412;51.350;17.056;2023-12-04T07:55:23;26.73;;;9.52;;
68432;SDS011;55412;51.350;17.056;2023-12-04T07:57:49;40.63;;;14.57;;
68432;SDS011;55412;51.350;17.056;2023-12-04T08:00:16;27.15;;;10.38;;
68432;SDS011;55412;51.350;17.056;2023-12-04T08:02:47;34.58;;;13.68;;
68432;SDS011;55412;51.350;17.056;2023-12-04T08:05:13;99.05;;;37.33;;
68432;SDS011;55412;51.350;17.056;2023-12-04T08:07:39;163.03;;;74.93;;
68432;SDS011;55412;51.350;17.056;2023-12-04T08:10:05;50.40;;;23.38;;
68432;SDS011;55412;51.350;17.056;2023-12-04T08:12:31;42.00;;;13.95;;
68432;SDS011;55412;51.350;17.056;2023-12-04T08:14:58;51.58;;;19.48;;
68432;SDS011;55412;51.350;17.056;2023-12-04T08:17:24;46.53;;;19.07;;
68432;SDS011;55412;51.350;17.056;2023-12-04T08:19:50;73.93;;;26.33;;
68432;SDS011;55412;51.350;17.056;2023-12-04T08:22:16;52.23;;;18.17;;
68432;SDS011;55412;51.350;17.056;2023-12-04T08:24:41;38.03;;;11.38;;
68432;SDS011;55412;51.350;17.056;2023-12-04T08:27:07;28.40;;;9.13;;
68432;SDS011;55412;51.350;17.056;2023-12-04T08:29:33;30.73;;;10.57;;
68432;SDS011;55412;51.350;17.056;2023-12-04T08:32:00;29.60;;;11.35;;
68432;SDS011;55412;51.350;17.056;2023-12-04T08:34:25;23.10;;;8.10;;
68432;SDS011;55412;51.350;17.056;2023-12-04T08:36:51;28.33;;;9.52;;
68432;SDS011;55412;51.350;17.056;2023-12-04T08:39:17;27.23;;;8.40;;
68432;SDS011;55412;51.350;17.056;2023-12-04T08:41:45;21.75;;;8.35;;
68432;SDS011;55412;51.350;17.056;2023-12-04T08:44:14;25.38;;;8.63;;
68432;SDS011;55412;51.350;17.056;2023-12-04T08:46:43;29.33;;;9.55;;
68432;SDS011;55412;51.350;17.056;2023-12-04T08:49:10;20.20;;;8.25;;
68432;SDS011;55412;51.350;17.056;2023-12-04T08:51:36;24.05;;;8.38;;
68432;SDS011;55412;51.350;17.056;2023-12-04T08:54:04;21.88;;;9.18;;
68432;SDS011;55412;51.350;17.056;2023-12-04T08:56:30;25.07;;;8.80;;
68432;SDS011;55412;51.350;17.056;2023-12-04T08:58:56;19.58;;;7.35;;
68432;SDS011;55412;51.350;17.056;2023-12-04T09:01:22;23.50;;;7.50;;
68432;SDS011;55412;51.350;17.056;2023-12-04T09:03:48;18.25;;;6.57;;
68432;SDS011;55412;51.350;17.056;2023-12-04T09:06:14;25.57;;;8.77;;
68432;SDS011;55412;51.350;17.056;2023-12-04T09:08:40;20.20;;;8.77;;
68432;SDS011;55412;51.350;17.056;2023-12-04T09:11:09;20.27;;;8.20;;
68432;SDS011;55412;51.350;17.056;2023-12-04T09:13:35;22.42;;;8.77;;
68432;SDS011;55412;51.350;17.056;2023-12-04T09:16:04;20.70;;;8.75;;
68432;SDS011;55412;51.350;17.056;2023-12-04T09:18:30;21.90;;;8.13;;
68432;SDS011;55412;51.350;17.056;2023-12-04T09:20:56;25.10;;;10.23;;
68432;SDS011;55412;51.350;17.056;2023-12-04T09:23:22;21.52;;;7.45;;
68432;SDS011;55412;51.350;17.056;2023-12-04T09:25:47;18.60;;;7.00;;
68432;SDS011;55412;51.350;17.056;2023-12-04T09:28:13;26.97;;;8.43;;
68432;SDS011;55412;51.350;17.056;2023-12-04T09:30:39;26.35;;;8.15;;
68432;SDS011;55412;51.350;17.056;2023-12-04T09:33:08;25.03;;;8.37;;
68432;SDS011;55412;51.350;17.056;2023-12-04T09:35:34;23.52;;;8.38;;
68432;SDS011;55412;51.350;17.056;2023-12-04T09:38:02;17.90;;;7.57;;
68432;SDS011;55412;51.350;17.056;2023-12-04T09:40:32;23.17;;;8.57;;
68432;SDS011;55412;51.350;17.056;2023-12-04T09:42:57;22.50;;;8.53;;
68432;SDS011;55412;51.350;17.056;2023-12-04T09:45:24;19.95;;;7.18;;
68432;SDS011;55412;51.350;17.056;2023-12-04T09:47:50;22.10;;;7.97;;
68432;SDS011;55412;51.350;17.056;2023-12-04T09:50:16;21.85;;;7.57;;
68432;SDS011;55412;51.350;17.056;2023-12-04T09:52:48;25.60;;;8.60;;
68432;SDS011;55412;51.350;17.056;2023-12-04T09:55:15;24.85;;;8.75;;
68432;SDS011;55412;51.350;17.056;2023-12-04T09:57:42;18.95;;;8.00;;
68432;SDS011;55412;51.350;17.056;2023-12-04T10:00:10;17.55;;;6.03;;
68432;SDS011;55412;51.350;17.056;2023-12-04T10:02:39;19.88;;;7.45;;
68432;SDS011;55412;51.350;17.056;2023-12-04T10:05:09;22.97;;;7.33;;
68432;SDS011;55412;51.350;17.056;2023-12-04T10:07:35;21.08;;;7.40;;
68432;SDS011;55412;51.350;17.056;2023-12-04T10:10:04;16.90;;;6.15;;
68432;SDS011;55412;51.350;17.056;2023-12-04T10:12:33;19.45;;;6.78;;
68432;SDS011;55412;51.350;17.056;2023-12-04T10:15:07;18.95;;;6.47;;
68432;SDS011;55412;51.350;17.056;2023-12-04T10:17:39;17.73;;;6.20;;
68432;SDS011;55412;51.350;17.056;2023-12-04T10:20:10;20.33;;;6.45;;
68432;SDS011;55412;51.350;17.056;2023-12-04T10:22:38;16.75;;;6.82;;
68432;SDS011;55412;51.350;17.056;2023-12-04T10:25:24;22.40;;;7.90;;
68432;SDS011;55412;51.350;17.056;2023-12-04T10:27:55;18.23;;;7.18;;
68432;SDS011;55412;51.350;17.056;2023-12-04T10:30:32;17.47;;;7.30;;
68432;SDS011;55412;51.350;17.056;2023-12-04T10:33:01;20.75;;;6.47;;
68432;SDS011;55412;51.350;17.056;2023-12-04T10:35:29;24.50;;;7.72;;
68432;SDS011;55412;51.350;17.056;2023-12-04T10:37:56;21.83;;;7.63;;
68432;SDS011;55412;51.350;17.056;2023-12-04T10:40:28;22.08;;;8.75;;
68432;SDS011;55412;51.350;17.056;2023-12-04T10:45:44;27.70;;;9.00;;
68432;SDS011;55412;51.350;17.056;2023-12-04T10:48:11;25.30;;;8.73;;
68432;SDS011;55412;51.350;17.056;2023-12-04T10:50:47;25.63;;;10.45;;
68432;SDS011;55412;51.350;17.056;2023-12-04T10:53:15;23.35;;;8.73;;
68432;SDS011;55412;51.350;17.056;2023-12-04T10:55:43;23.70;;;9.80;;
68432;SDS011;55412;51.350;17.056;2023-12-04T10:58:12;26.13;;;9.15;;
68432;SDS011;55412;51.350;17.056;2023-12-04T11:03:10;26.77;;;9.13;;
68432;SDS011;55412;51.350;17.056;2023-12-04T11:05:45;23.73;;;9.60;;
68432;SDS011;55412;51.350;17.056;2023-12-04T11:08:16;27.50;;;9.77;;
68432;SDS011;55412;51.350;17.056;2023-12-04T11:10:48;27.27;;;9.00;;
68432;SDS011;55412;51.350;17.056;2023-12-04T11:13:22;26.38;;;9.27;;
68432;SDS011;55412;51.350;17.056;2023-12-04T11:16:00;23.40;;;8.27;;
68432;SDS011;55412;51.350;17.056;2023-12-04T11:18:30;22.90;;;8.98;;
68432;SDS011;55412;51.350;17.056;2023-12-04T11:21:03;23.93;;;9.17;;
68432;SDS011;55412;51.350;17.056;2023-12-04T11:23:33;26.38;;;9.52;;
68432;SDS011;55412;51.350;17.056;2023-12-04T11:25:59;26.55;;;9.80;;
68432;SDS011;55412;51.350;17.056;2023-12-04T11:28:26;29.30;;;10.05;;
68432;SDS011;55412;51.350;17.056;2023-12-04T11:30:53;25.92;;;9.63;;
68432;SDS011;55412;51.350;17.056;2023-12-04T11:33:20;27.13;;;9.90;;
68432;SDS011;55412;51.350;17.056;2023-12-04T11:35:45;25.73;;;10.68;;
68432;SDS011;55412;51.350;17.056;2023-12-04T11:38:14;24.95;;;9.82;;
68432;SDS011;55412;51.350;17.056;2023-12-04T11:40:41;28.02;;;10.10;;
68432;SDS011;55412;51.350;17.056;2023-12-04T11:43:25;30.95;;;12.13;;
68432;SDS011;55412;51.350;17.056;2023-12-04T11:45:52;27.77;;;9.60;;
68432;SDS011;55412;51.350;17.056;2023-12-04T11:48:22;30.60;;;10.45;;
68432;SDS011;55412;51.350;17.056;2023-12-04T11:50:51;26.70;;;10.65;;
68432;SDS011;55412;51.350;17.056;2023-12-04T11:53:17;27.65;;;10.13;;
68432;SDS011;55412;51.350;17.056;2023-12-04T11:58:55;27.20;;;10.73;;
68432;SDS011;55412;51.350;17.056;2023-12-04T12:01:32;29.98;;;11.07;;
68432;SDS011;55412;51.350;17.056;2023-12-04T12:03:59;29.52;;;11.30;;
68432;SDS011;55412;51.350;17.056;2023-12-04T12:06:26;28.83;;;11.33;;
68432;SDS011;55412;51.350;17.056;2023-12-04T12:08:52;29.70;;;10.27;;
68432;SDS011;55412;51.350;17.056;2023-12-04T12:11:19;31.20;;;11.18;;
68432;SDS011;55412;51.350;17.056;2023-12-04T12:13:45;30.90;;;11.20;;
68432;SDS011;55412;51.350;17.056;2023-12-04T12:16:11;28.57;;;11.33;;
68432;SDS011;55412;51.350;17.056;2023-12-04T12:18:37;28.92;;;10.57;;
68432;SDS011;55412;51.350;17.056;2023-12-04T12:21:04;33.05;;;11.32;;
68432;SDS011;55412;51.350;17.056;2023-12-04T12:23:31;31.23;;;12.27;;
68432;SDS011;55412;51.350;17.056;2023-12-04T12:28:58;33.08;;;12.93;;
68432;SDS011;55412;51.350;17.056;2023-12-04T12:31:24;31.38;;;10.93;;
68432;SDS011;55412;51.350;17.056;2023-12-04T12:33:50;31.58;;;11.20;;
68432;SDS011;55412;51.350;17.056;2023-12-04T12:36:17;31.97;;;11.03;;
68432;SDS011;55412;51.350;17.056;2023-12-04T12:38:44;23.70;;;8.85;;
68432;SDS011;55412;51.350;17.056;2023-12-04T12:41:15;33.45;;;12.48;;
68432;SDS011;55412;51.350;17.056;2023-12-04T12:43:42;29.55;;;10.13;;
68432;SDS011;55412;51.350;17.056;2023-12-04T12:46:08;29.23;;;11.00;;
68432;SDS011;55412;51.350;17.056;2023-12-04T12:48:34;31.60;;;11.70;;
68432;SDS011;55412;51.350;17.056;2023-12-04T12:51:02;34.95;;;10.80;;
68432;SDS011;55412;51.350;17.056;2023-12-04T12:53:28;31.25;;;11.23;;
68432;SDS011;55412;51.350;17.056;2023-12-04T12:55:57;30.97;;;10.63;;
68432;SDS011;55412;51.350;17.056;2023-12-04T12:58:26;34.17;;;12.15;;
68432;SDS011;55412;51.350;17.056;2023-12-04T13:00:52;32.10;;;11.20;;
68432;SDS011;55412;51.350;17.056;2023-12-04T13:03:18;34.50;;;12.05;;
68432;SDS011;55412;51.350;17.056;2023-12-04T13:05:45;31.90;;;11.70;;
68432;SDS011;55412;51.350;17.056;2023-12-04T13:08:11;31.20;;;12.53;;
68432;SDS011;55412;51.350;17.056;2023-12-04T13:10:37;38.70;;;14.10;;
68432;SDS011;55412;51.350;17.056;2023-12-04T13:13:04;32.60;;;12.68;;
68432;SDS011;55412;51.350;17.056;2023-12-04T13:15:38;35.15;;;13.10;;
68432;SDS011;55412;51.350;17.056;2023-12-04T13:18:04;36.53;;;13.70;;
68432;SDS011;55412;51.350;17.056;2023-12-04T13:20:29;34.00;;;12.30;;
68432;SDS011;55412;51.350;17.056;2023-12-04T13:22:55;33.58;;;11.30;;
68432;SDS011;55412;51.350;17.056;2023-12-04T13:25:21;32.65;;;12.02;;
68432;SDS011;55412;51.350;17.056;2023-12-04T13:27:47;36.83;;;12.95;;
68432;SDS011;55412;51.350;17.056;2023-12-04T13:30:14;32.17;;;13.07;;
68432;SDS011;55412;51.350;17.056;2023-12-04T13:32:40;35.92;;;12.77;;
68432;SDS011;55412;51.350;17.056;2023-12-04T13:35:06;42.17;;;14.85;;
68432;SDS011;55412;51.350;17.056;2023-12-04T13:37:36;37.30;;;15.38;;
68432;SDS011;55412;51.350;17.056;2023-12-04T13:40:04;36.50;;;14.10;;
68432;SDS011;55412;51.350;17.056;2023-12-04T13:42:37;35.97;;;14.45;;
68432;SDS011;55412;51.350;17.056;2023-12-04T13:45:22;41.90;;;14.40;;
68432;SDS011;55412;51.350;17.056;2023-12-04T13:47:50;36.05;;;14.70;;
68432;SDS011;55412;51.350;17.056;2023-12-04T13:50:18;39.93;;;14.13;;
68432;SDS011;55412;51.350;17.056;2023-12-04T13:52:44;37.22;;;14.30;;
68432;SDS011;55412;51.350;17.056;2023-12-04T13:55:10;46.28;;;15.13;;
68432;SDS011;55412;51.350;17.056;2023-12-04T13:57:47;38.67;;;15.02;;
68432;SDS011;55412;51.350;17.056;2023-12-04T14:00:24;36.42;;;14.10;;
68432;SDS011;55412;51.350;17.056;2023-12-04T14:02:50;37.22;;;14.60;;
68432;SDS011;55412;51.350;17.056;2023-12-04T14:05:21;34.35;;;13.65;;
68432;SDS011;55412;51.350;17.056;2023-12-04T14:07:47;42.03;;;15.48;;
68432;SDS011;55412;51.350;17.056;2023-12-04T14:10:13;45.05;;;16.38;;
68432;SDS011;55412;51.350;17.056;2023-12-04T14:12:40;43.70;;;15.97;;
68432;SDS011;55412;51.350;17.056;2023-12-04T14:15:06;42.33;;;15.60;;
68432;SDS011;55412;51.350;17.056;2023-12-04T14:17:32;40.03;;;13.88;;
68432;SDS011;55412;51.350;17.056;2023-12-04T14:19:58;40.27;;;14.33;;
68432;SDS011;55412;51.350;17.056;2023-12-04T14:22:24;36.45;;;14.00;;
68432;SDS011;55412;51.350;17.056;2023-12-04T14:24:51;39.83;;;13.75;;
68432;SDS011;55412;51.350;17.056;2023-12-04T14:27:17;44.15;;;15.40;;